Aérodrome :
LOGIN :

S'inscrire | Disclaimer

   EN    FR    IT 

 










Légende :    VFR   VFR Marginal   IFR   IFR Intensif   IFR Très Intensif
Visi : 
Plafond : 
>= 8 km
>= 3000ft
5 à 8 km
1000 à 3000 ft
1500m à 5 km
500 à 1000 ft
800 à 1500m
200 à 500 ft
< 800m
< 200 ft
Symboles :   Orages  Brouillard  Fortes neiges  Fortes précipitations  Vent > 20 kt
SIGMETs :   Divers  Orages  Givrage  Turbulence  Onde Orograph.  Cendres Volcan.






- Altitude de l'aérodrome : 57 ft
- Code IATA : KRS


ENCN - Kristiansand Kjevik

DERNIER METAR :
  • 210050Z AUTO 24008KT 9999 NCD 03/M00 Q0996

METARs EXPIRÉS :
  • 210020Z AUTO 26011KT 9999 NCD 04/M00 Q0995
  • 202350Z AUTO 26011KT 9999 NCD 04/M00 Q0995
  • 202320Z AUTO 26010KT 9999 NCD 03/M00 Q0994
  • 202250Z AUTO 27014KT 230V290 9999 NCD 03/M00 Q0994
  • 202220Z 27011G22KT 240V300 CAVOK 04/M00 Q0993

Prévision TAF périmée.



MET'MAP, la Météo Aéronautique d'un coup d'oeil ! - Copyright ORBIFLY Décembre 2007 - Disclaimer

ORBIFLY MET'MAP TEAM :

Programmation & Développement : Alexandra Zaïnal
Sur une idée originale de : Baudouin d'Aumeries
Assistance à la programmation : Marc-Olivier Méhu
Soutien technique & logistique : Manuel Goepfert

Contact : metmap@orbifly.com




SOURCES & CREDITS :

   NOAA